createdAt,value
2022-10-23T00:00:10.644Z,40.30
2022-10-23T00:00:44.277Z,38.95
2022-10-23T00:01:20.114Z,38.83
2022-10-23T00:01:37.660Z,40.22
2022-10-23T00:01:50.928Z,38.90
2022-10-23T00:02:04.678Z,37.65
2022-10-23T00:02:17.323Z,36.78
2022-10-23T00:02:30.154Z,37.05
2022-10-23T00:02:42.919Z,38.42
2022-10-23T00:02:56.647Z,37.65
2022-10-23T00:03:09.255Z,37.53
2022-10-23T00:03:21.891Z,36.25
2022-10-23T00:03:34.433Z,34.60
2022-10-23T00:03:47.803Z,37.95
2022-10-23T00:04:03.268Z,38.00
2022-10-23T00:04:17.668Z,36.10
2022-10-23T00:04:30.208Z,35.85
2022-10-23T00:04:42.794Z,35.83
2022-10-23T00:04:55.419Z,34.78
2022-10-23T00:05:09.788Z,33.22
2022-10-23T00:05:23.108Z,34.22
2022-10-23T00:05:40.546Z,34.55
2022-10-23T00:05:53.148Z,33.50
2022-10-23T00:06:06.073Z,33.72
2022-10-23T00:06:19.198Z,33.83
2022-10-23T00:06:33.412Z,34.22
2022-10-23T00:06:48.384Z,35.35
2022-10-23T00:07:01.000Z,40.00
2022-10-23T00:07:13.784Z,38.85
2022-10-23T00:07:26.633Z,35.28
2022-10-23T00:07:39.208Z,34.88
2022-10-23T00:07:52.707Z,35.00
2022-10-23T00:08:05.292Z,35.75
2022-10-23T00:08:17.900Z,36.35
2022-10-23T00:08:31.454Z,38.97
2022-10-23T00:08:44.305Z,36.83
2022-10-23T00:08:57.052Z,35.85
2022-10-23T00:09:17.597Z,36.30
2022-10-23T00:09:30.400Z,33.95
2022-10-23T00:09:43.061Z,34.40
2022-10-23T00:09:56.969Z,35.72
2022-10-23T00:10:11.296Z,35.40
2022-10-23T00:10:25.036Z,33.35
2022-10-23T00:10:41.415Z,35.25
2022-10-23T00:10:53.977Z,34.55
2022-10-23T00:11:07.951Z,33.40
2022-10-23T00:11:23.117Z,33.30
2022-10-23T00:11:36.200Z,34.22
2022-10-23T00:11:51.299Z,32.58
2022-10-23T00:12:04.226Z,29.20
2022-10-23T00:12:17.012Z,30.90
2022-10-23T00:12:29.598Z,33.80
2022-10-23T00:12:42.537Z,34.28
2022-10-23T00:12:55.292Z,37.05
2022-10-23T00:13:07.925Z,35.70
2022-10-23T00:13:20.506Z,32.95
2022-10-23T00:13:34.054Z,32.13
2022-10-23T00:13:47.427Z,32.88
2022-10-23T00:14:02.102Z,32.47
2022-10-23T00:14:16.346Z,30.95
2022-10-23T00:14:29.910Z,31.73
2022-10-23T00:14:42.486Z,30.10
2022-10-23T00:14:55.038Z,29.70
2022-10-23T00:15:08.404Z,29.40
2022-10-23T00:15:22.792Z,30.10
2022-10-23T00:15:36.531Z,31.10
2022-10-23T00:15:49.119Z,31.30
2022-10-23T00:16:02.025Z,32.15
2022-10-23T00:16:14.617Z,32.22
2022-10-23T00:16:27.367Z,32.83
2022-10-23T00:16:40.989Z,32.05
2022-10-23T00:16:53.643Z,31.13
2022-10-23T00:17:06.375Z,29.88
2022-10-23T00:17:18.956Z,29.38
2022-10-23T00:17:32.775Z,29.23
2022-10-23T00:17:45.824Z,31.98
2022-10-23T00:17:58.410Z,33.25
2022-10-23T00:18:10.978Z,30.85
2022-10-23T00:18:23.540Z,32.92
2022-10-23T00:18:37.495Z,33.72
2022-10-23T00:18:50.119Z,32.58
2022-10-23T00:19:02.832Z,30.70
2022-10-23T00:19:15.680Z,32.83
2022-10-23T00:19:29.284Z,33.97
2022-10-23T00:19:41.874Z,30.98
2022-10-23T00:19:54.471Z,30.48
2022-10-23T00:20:09.017Z,30.52
2022-10-23T00:20:22.129Z,35.20
2022-10-23T00:20:34.796Z,35.55
2022-10-23T00:20:47.396Z,32.60
2022-10-23T00:21:00.224Z,32.00
2022-10-23T00:21:14.476Z,33.55
2022-10-23T00:21:28.476Z,33.50
2022-10-23T00:21:41.242Z,33.05
2022-10-23T00:21:54.016Z,34.17
2022-10-23T00:22:08.648Z,33.92
2022-10-23T00:22:21.240Z,30.35
2022-10-23T00:22:34.179Z,30.15
2022-10-23T00:22:47.840Z,28.27
2022-10-23T00:23:00.439Z,29.58
2022-10-23T00:23:13.009Z,30.25
2022-10-23T00:23:25.755Z,28.77
2022-10-23T00:23:38.727Z,29.08
2022-10-23T00:23:51.576Z,29.83
2022-10-23T00:24:06.330Z,28.95
2022-10-23T00:24:19.023Z,28.13
2022-10-23T00:24:31.612Z,28.17
2022-10-23T00:24:44.336Z,30.77
2022-10-23T00:24:58.319Z,29.75
2022-10-23T00:25:11.175Z,29.63
2022-10-23T00:25:24.879Z,30.33
2022-10-23T00:25:38.972Z,30.45
2022-10-23T00:25:51.616Z,29.38
2022-10-23T00:26:04.819Z,29.50
2022-10-23T00:26:17.935Z,29.02
2022-10-23T00:26:30.535Z,29.08
2022-10-23T00:26:43.786Z,30.08
2022-10-23T00:26:56.364Z,29.95
2022-10-23T00:27:10.375Z,31.40
2022-10-23T00:27:23.326Z,30.70
2022-10-23T00:27:35.983Z,30.52
2022-10-23T00:27:48.572Z,29.85
2022-10-23T00:28:01.246Z,28.30
2022-10-23T00:28:13.890Z,28.95
2022-10-23T00:28:27.163Z,29.45
2022-10-23T00:28:39.763Z,29.67
2022-10-23T00:28:54.868Z,28.40
2022-10-23T00:29:09.218Z,29.65
2022-10-23T00:29:21.802Z,29.75
2022-10-23T00:29:34.423Z,28.17
2022-10-23T00:29:47.074Z,30.33
2022-10-23T00:29:59.670Z,32.60
2022-10-23T00:30:13.273Z,31.25
2022-10-23T00:30:25.894Z,29.95
2022-10-23T00:30:39.521Z,30.63
2022-10-23T00:30:52.131Z,28.92
2022-10-23T00:31:06.360Z,27.63
2022-10-23T00:31:20.190Z,27.70
2022-10-23T00:31:33.391Z,26.00
2022-10-23T00:31:46.039Z,26.20
2022-10-23T00:31:59.632Z,28.85
2022-10-23T00:32:12.192Z,32.35
2022-10-23T00:32:25.144Z,33.25
2022-10-23T00:32:38.489Z,35.10
2022-10-23T00:32:51.085Z,33.50
2022-10-23T00:33:03.932Z,32.75
2022-10-23T00:33:16.632Z,33.67
2022-10-23T00:33:30.359Z,33.20
2022-10-23T00:33:43.513Z,29.85
2022-10-23T00:33:56.090Z,26.50
2022-10-23T00:34:09.165Z,29.23
2022-10-23T00:34:21.832Z,32.20
2022-10-23T00:34:34.454Z,33.45
2022-10-23T00:34:48.669Z,35.13
2022-10-23T00:35:01.294Z,32.88
2022-10-23T00:35:13.898Z,33.20
2022-10-23T00:35:26.489Z,34.05
2022-10-23T00:35:40.084Z,33.70
2022-10-23T00:35:52.686Z,31.58
2022-10-23T00:36:07.231Z,32.58
2022-10-23T00:36:22.328Z,33.03
2022-10-23T00:36:35.660Z,36.58
2022-10-23T00:36:48.261Z,34.75
2022-10-23T00:37:00.842Z,31.67
2022-10-23T00:37:13.456Z,32.35
2022-10-23T00:37:26.057Z,34.88
2022-10-23T00:37:38.640Z,35.65
2022-10-23T00:37:51.317Z,33.72
2022-10-23T00:38:05.249Z,34.05
2022-10-23T00:38:17.896Z,33.40
2022-10-23T00:38:30.492Z,33.03
2022-10-23T00:38:43.719Z,33.35
2022-10-23T00:38:56.793Z,38.00
2022-10-23T00:39:09.379Z,37.63
2022-10-23T00:39:21.967Z,36.38
2022-10-23T00:39:35.628Z,33.53
2022-10-23T00:39:48.252Z,30.45
2022-10-23T00:40:02.240Z,29.52
2022-10-23T00:40:14.907Z,31.90
2022-10-23T00:40:27.510Z,33.65
2022-10-23T00:40:42.264Z,33.10
2022-10-23T00:40:54.928Z,31.05
2022-10-23T00:41:09.611Z,32.38
2022-10-23T00:41:28.056Z,32.75
2022-10-23T00:41:40.875Z,34.75
2022-10-23T00:41:53.546Z,34.22
2022-10-23T00:42:06.172Z,34.05
2022-10-23T00:42:20.709Z,35.88
2022-10-23T00:42:33.368Z,33.92
2022-10-23T00:42:46.952Z,31.75
2022-10-23T00:42:59.526Z,30.20
2022-10-23T00:43:18.675Z,30.88
2022-10-23T00:43:32.377Z,32.72
2022-10-23T00:44:05.620Z,33.92
2022-10-23T00:44:56.480Z,33.00
2022-10-23T00:45:21.991Z,31.20
2022-10-23T00:45:34.995Z,33.58
2022-10-23T00:45:47.996Z,34.63
2022-10-23T00:46:01.660Z,34.95
2022-10-23T00:46:14.271Z,34.92
2022-10-23T00:46:27.183Z,33.55
2022-10-23T00:46:40.455Z,32.55
2022-10-23T00:46:53.064Z,32.53
2022-10-23T00:47:05.636Z,31.10
2022-10-23T00:47:18.694Z,34.28
2022-10-23T00:47:32.290Z,35.17
2022-10-23T00:47:45.240Z,34.28
2022-10-23T00:47:57.924Z,31.60
2022-10-23T00:48:10.685Z,32.97
2022-10-23T00:48:23.480Z,34.47
2022-10-23T00:48:36.116Z,33.67
2022-10-23T00:48:48.773Z,33.42
2022-10-23T00:49:03.684Z,35.75
2022-10-23T00:49:16.865Z,38.50
2022-10-23T00:49:29.908Z,36.65
2022-10-23T00:49:43.014Z,34.15
2022-10-23T00:49:55.665Z,34.03
2022-10-23T00:50:08.776Z,33.50
2022-10-23T00:50:26.212Z,34.67
2022-10-23T00:50:39.026Z,35.45
2022-10-23T00:50:52.131Z,37.58
2022-10-23T00:51:04.993Z,42.35
2022-10-23T00:51:17.991Z,40.22
2022-10-23T00:51:36.208Z,35.05
2022-10-23T00:51:52.300Z,36.00
2022-10-23T00:52:08.540Z,34.78
2022-10-23T00:52:21.192Z,34.08
2022-10-23T00:52:38.376Z,33.50
2022-10-23T00:52:53.550Z,35.13
2022-10-23T00:53:06.559Z,34.63
2022-10-23T00:53:21.264Z,33.95
2022-10-23T00:53:33.867Z,32.58
2022-10-23T00:54:01.415Z,33.92
2022-10-23T00:54:30.544Z,36.30
2022-10-23T00:54:44.204Z,37.05
2022-10-23T00:54:57.264Z,37.63
2022-10-23T00:55:11.404Z,38.97
2022-10-23T00:55:25.601Z,39.42
2022-10-23T00:55:39.222Z,40.92
2022-10-23T00:55:54.000Z,38.30
2022-10-23T00:56:07.301Z,35.90
2022-10-23T00:56:21.108Z,36.53
2022-10-23T00:56:37.105Z,35.03
2022-10-23T00:56:49.979Z,37.40
2022-10-23T00:57:04.346Z,37.72
2022-10-23T00:57:17.161Z,35.78
2022-10-23T00:57:29.825Z,35.90
2022-10-23T00:57:45.235Z,36.70
2022-10-23T00:57:59.209Z,36.55
2022-10-23T00:58:11.971Z,36.10
2022-10-23T00:58:24.588Z,36.15
2022-10-23T00:58:37.351Z,34.13
2022-10-23T00:58:49.944Z,35.03
2022-10-23T00:59:02.529Z,36.75
2022-10-23T00:59:15.520Z,35.45
2022-10-23T00:59:29.203Z,33.25
2022-10-23T00:59:41.933Z,34.65
2022-10-23T00:59:55.548Z,35.03
2022-10-23T01:00:09.367Z,34.60
2022-10-23T01:00:25.704Z,35.55
2022-10-23T01:00:45.132Z,37.38
2022-10-23T01:00:58.869Z,37.88
2022-10-23T01:01:18.257Z,36.05
2022-10-23T01:01:31.012Z,36.60
2022-10-23T01:01:43.984Z,37.20
2022-10-23T01:01:57.518Z,37.22
2022-10-23T01:02:10.527Z,36.53
2022-10-23T01:02:23.571Z,34.97
2022-10-23T01:02:37.260Z,36.00
2022-10-23T01:02:50.616Z,35.00
2022-10-23T01:03:04.305Z,35.65
2022-10-23T01:03:19.368Z,36.10
2022-10-23T01:03:32.273Z,35.63
2022-10-23T01:03:45.126Z,35.08
2022-10-23T01:03:58.344Z,35.00
2022-10-23T01:04:12.414Z,36.95
2022-10-23T01:04:26.364Z,37.55
2022-10-23T01:04:39.013Z,36.85
2022-10-23T01:04:51.630Z,36.42
2022-10-23T01:05:04.644Z,34.72
2022-10-23T01:05:18.007Z,33.90
2022-10-23T01:05:40.503Z,35.35
2022-10-23T01:06:00.490Z,35.20
2022-10-23T01:06:20.652Z,35.67
2022-10-23T01:06:37.864Z,36.20
2022-10-23T01:06:58.101Z,31.17
2022-10-23T01:07:17.486Z,34.33
2022-10-23T01:07:37.050Z,36.35
2022-10-23T01:07:54.953Z,35.47
2022-10-23T01:08:14.482Z,36.28
2022-10-23T01:08:32.240Z,36.88
2022-10-23T01:08:50.922Z,39.72
2022-10-23T01:09:10.800Z,37.38
2022-10-23T01:09:29.639Z,37.63
2022-10-23T01:09:49.031Z,35.70
2022-10-23T01:10:06.575Z,35.90
2022-10-23T01:10:28.638Z,36.45
2022-10-23T01:10:47.489Z,35.88
2022-10-23T01:11:05.109Z,37.22
2022-10-23T01:11:22.990Z,34.95
2022-10-23T01:11:40.960Z,32.30
2022-10-23T01:12:00.898Z,34.55
2022-10-23T01:12:23.296Z,34.13
2022-10-23T01:12:45.555Z,37.67
2022-10-23T01:13:03.397Z,35.00
2022-10-23T01:13:21.888Z,39.33
2022-10-23T01:13:43.873Z,39.65
2022-10-23T01:14:27.526Z,36.05
2022-10-23T01:14:48.358Z,35.72
2022-10-23T01:15:06.732Z,37.38
2022-10-23T01:15:24.011Z,38.53
2022-10-23T01:15:44.685Z,36.88
2022-10-23T01:16:06.503Z,34.67
2022-10-23T01:16:23.729Z,35.47
2022-10-23T01:16:42.512Z,35.38
2022-10-23T01:17:04.300Z,36.03
2022-10-23T01:17:25.123Z,39.08
2022-10-23T01:17:44.742Z,38.85
2022-10-23T01:18:05.348Z,35.80
2022-10-23T01:18:26.412Z,38.20
2022-10-23T01:18:44.826Z,38.80
2022-10-23T01:19:01.948Z,37.45
2022-10-23T01:19:22.715Z,36.25
2022-10-23T01:19:50.599Z,38.88
2022-10-23T01:20:14.307Z,38.28
2022-10-23T01:20:39.904Z,36.40
2022-10-23T01:21:00.377Z,37.80
2022-10-23T01:21:17.528Z,35.88
2022-10-23T01:21:44.682Z,35.92
2022-10-23T01:22:09.940Z,34.85
2022-10-23T01:22:42.764Z,35.75
2022-10-23T01:23:10.647Z,34.88
2022-10-23T01:23:43.567Z,34.90
2022-10-23T01:24:19.628Z,37.47
2022-10-23T01:24:42.958Z,37.25
2022-10-23T01:24:59.366Z,33.50
2022-10-23T01:25:27.212Z,34.60
2022-10-23T01:26:01.910Z,33.22
2022-10-23T01:26:26.761Z,35.85
2022-10-23T01:26:50.679Z,33.35
2022-10-23T01:27:24.112Z,34.95
2022-10-23T01:27:42.530Z,34.78
2022-10-23T01:28:00.286Z,31.90
2022-10-23T01:28:17.581Z,33.13
2022-10-23T01:28:34.380Z,34.00
2022-10-23T01:28:51.763Z,32.80
2022-10-23T01:29:08.900Z,32.38
2022-10-23T01:29:29.688Z,34.85
2022-10-23T01:29:46.771Z,35.55
2022-10-23T01:30:05.906Z,35.30
2022-10-23T01:30:19.837Z,33.13
2022-10-23T01:30:33.796Z,33.83
2022-10-23T01:30:47.206Z,35.00
2022-10-23T01:31:03.154Z,34.90
2022-10-23T01:31:22.294Z,31.15
2022-10-23T01:31:39.794Z,30.27
2022-10-23T01:31:59.206Z,30.67
2022-10-23T01:32:16.846Z,31.67
2022-10-23T01:32:35.428Z,32.22
2022-10-23T01:32:51.244Z,30.80
2022-10-23T01:33:09.964Z,32.70
2022-10-23T01:33:28.159Z,34.30
2022-10-23T01:33:46.091Z,33.88
2022-10-23T01:34:04.311Z,29.70
2022-10-23T01:34:22.414Z,32.50
2022-10-23T01:34:44.761Z,33.05
2022-10-23T01:35:04.635Z,29.90
2022-10-23T01:35:22.523Z,31.85
2022-10-23T01:35:40.859Z,35.00
2022-10-23T01:36:02.763Z,34.17
2022-10-23T01:36:18.583Z,30.40
2022-10-23T01:36:33.308Z,28.33
2022-10-23T01:36:50.392Z,29.30
2022-10-23T01:37:05.462Z,28.77
2022-10-23T01:37:24.477Z,27.35
2022-10-23T01:37:42.904Z,30.95
2022-10-23T01:38:01.611Z,29.83
2022-10-23T01:38:19.871Z,29.67
2022-10-23T01:38:39.639Z,32.25
2022-10-23T01:38:56.802Z,32.25
2022-10-23T01:39:15.610Z,28.75
2022-10-23T01:39:34.059Z,28.70
2022-10-23T01:39:52.831Z,28.08
2022-10-23T01:40:12.287Z,28.23
2022-10-23T01:40:31.228Z,29.80
2022-10-23T01:40:49.135Z,28.90
2022-10-23T01:41:08.475Z,29.20
2022-10-23T01:41:28.444Z,27.77
2022-10-23T01:41:46.541Z,28.55
2022-10-23T01:42:06.102Z,34.97
2022-10-23T01:42:26.863Z,34.58
2022-10-23T01:42:45.013Z,29.33
2022-10-23T01:43:04.383Z,31.23
2022-10-23T01:43:20.945Z,32.53
2022-10-23T01:43:40.942Z,32.10
2022-10-23T01:44:00.237Z,33.13
2022-10-23T01:44:17.781Z,30.98
2022-10-23T01:44:36.685Z,29.70
2022-10-23T01:44:53.811Z,31.60
2022-10-23T01:45:13.785Z,30.27
2022-10-23T01:45:33.596Z,29.23
2022-10-23T01:45:50.871Z,31.63
2022-10-23T01:46:08.622Z,31.70
2022-10-23T01:46:23.920Z,32.55
2022-10-23T01:46:37.574Z,33.65
2022-10-23T01:46:52.817Z,32.80
2022-10-23T01:47:09.877Z,33.28
2022-10-23T01:47:29.444Z,32.15
2022-10-23T01:47:44.050Z,30.92
2022-10-23T01:47:57.810Z,31.55
2022-10-23T01:48:18.188Z,30.13
2022-10-23T01:48:33.447Z,31.23
2022-10-23T01:48:51.378Z,32.33
2022-10-23T01:49:09.688Z,32.00
2022-10-23T01:49:23.880Z,31.17
2022-10-23T01:49:39.414Z,32.22
2022-10-23T01:49:53.813Z,30.92
2022-10-23T01:50:11.419Z,30.92
2022-10-23T01:50:25.622Z,31.42
2022-10-23T01:50:41.556Z,32.20
2022-10-23T01:50:58.119Z,32.03
2022-10-23T01:51:13.508Z,33.13
2022-10-23T01:51:29.772Z,34.08
2022-10-23T01:51:46.924Z,35.53
2022-10-23T01:52:04.292Z,36.47
2022-10-23T01:52:18.413Z,36.15
2022-10-23T01:52:31.356Z,37.50
2022-10-23T01:52:44.131Z,38.28
2022-10-23T01:52:56.901Z,34.65
2022-10-23T01:53:09.640Z,32.42
2022-10-23T01:53:23.593Z,31.83
2022-10-23T01:53:41.381Z,31.73
2022-10-23T01:53:59.769Z,31.38
2022-10-23T01:54:14.761Z,29.98
2022-10-23T01:54:32.271Z,31.20
2022-10-23T01:54:46.954Z,32.92
2022-10-23T01:55:01.663Z,29.65
2022-10-23T01:55:15.380Z,27.95
2022-10-23T01:55:29.006Z,28.55
2022-10-23T01:55:43.379Z,32.40
2022-10-23T01:55:56.774Z,32.85
2022-10-23T01:56:11.946Z,28.30
2022-10-23T01:56:28.574Z,25.40
2022-10-23T01:56:44.621Z,28.52
2022-10-23T01:57:00.237Z,30.02
2022-10-23T01:57:17.668Z,30.38
2022-10-23T01:57:34.872Z,35.28
2022-10-23T01:57:49.848Z,31.45
2022-10-23T01:58:03.064Z,29.73
2022-10-23T01:58:16.843Z,29.00
2022-10-23T01:58:31.595Z,29.58
2022-10-23T01:58:48.336Z,29.40
2022-10-23T01:59:05.705Z,27.15
2022-10-23T01:59:22.774Z,30.75
2022-10-23T01:59:39.014Z,34.50
2022-10-23T01:59:56.186Z,33.80
2022-10-23T02:00:13.305Z,34.88
2022-10-23T02:00:25.951Z,35.35
2022-10-23T02:00:41.503Z,36.67
2022-10-23T02:00:58.950Z,37.63
2022-10-23T02:01:13.999Z,33.58
2022-10-23T02:01:30.202Z,33.10
2022-10-23T02:01:47.567Z,30.55
2022-10-23T02:02:03.051Z,30.08
2022-10-23T02:02:18.402Z,29.67
2022-10-23T02:02:33.040Z,28.20
2022-10-23T02:02:49.195Z,29.52
2022-10-23T02:03:04.595Z,29.98
2022-10-23T02:03:19.421Z,29.50
2022-10-23T02:03:35.663Z,29.88
2022-10-23T02:03:49.577Z,30.10
2022-10-23T02:04:06.363Z,29.13
2022-10-23T02:04:29.836Z,28.10
2022-10-23T02:04:50.423Z,33.67
2022-10-23T02:05:07.837Z,34.70
2022-10-23T02:05:24.324Z,34.17
2022-10-23T02:05:39.305Z,32.75
2022-10-23T02:05:52.013Z,32.28
2022-10-23T02:06:05.210Z,33.45
2022-10-23T02:06:18.056Z,34.75
2022-10-23T02:06:31.860Z,32.80
2022-10-23T02:06:44.597Z,30.40
2022-10-23T02:06:57.384Z,28.98
2022-10-23T02:07:10.047Z,29.70
2022-10-23T02:07:23.231Z,32.92
2022-10-23T02:07:36.591Z,33.28
2022-10-23T02:07:49.910Z,33.08
2022-10-23T02:08:04.213Z,35.80
2022-10-23T02:08:16.849Z,34.30
2022-10-23T02:08:29.601Z,33.78
2022-10-23T02:08:42.703Z,36.42
2022-10-23T02:08:55.307Z,34.58
2022-10-23T02:09:08.066Z,32.03
2022-10-23T02:09:20.703Z,28.73
2022-10-23T02:09:34.874Z,28.75
2022-10-23T02:09:47.576Z,31.98
2022-10-23T02:10:00.365Z,31.40
2022-10-23T02:10:14.455Z,31.98
2022-10-23T02:10:32.791Z,35.05
2022-10-23T02:10:54.022Z,36.20
2022-10-23T02:11:09.549Z,35.40
2022-10-23T02:11:22.377Z,34.80
2022-10-23T02:11:44.591Z,34.35
2022-10-23T02:12:03.292Z,32.22
2022-10-23T02:12:50.339Z,32.85
2022-10-23T02:13:09.313Z,33.50
2022-10-23T02:13:29.831Z,35.92
2022-10-23T02:13:48.899Z,37.22
2022-10-23T02:14:08.066Z,33.65
2022-10-23T02:14:29.203Z,36.85
2022-10-23T02:14:52.983Z,36.53
2022-10-23T02:15:14.254Z,36.22
2022-10-23T02:15:33.101Z,34.42
2022-10-23T02:15:48.877Z,31.20
2022-10-23T02:16:10.685Z,32.08
2022-10-23T02:16:29.277Z,33.45
2022-10-23T02:16:49.092Z,32.95
2022-10-23T02:17:11.163Z,32.15
2022-10-23T02:17:34.495Z,37.40
2022-10-23T02:17:55.446Z,35.78
2022-10-23T02:18:16.477Z,34.08
2022-10-23T02:18:37.007Z,33.28
2022-10-23T02:18:56.613Z,34.42
2022-10-23T02:19:18.305Z,39.28
2022-10-23T02:19:41.253Z,38.00
2022-10-23T02:20:01.528Z,38.13
2022-10-23T02:20:20.108Z,35.25
2022-10-23T02:20:37.816Z,35.38
2022-10-23T02:20:55.883Z,36.25
2022-10-23T02:21:12.992Z,35.70
2022-10-23T02:21:31.778Z,33.80
2022-10-23T02:21:53.321Z,32.65
2022-10-23T02:22:09.991Z,34.67
2022-10-23T02:22:27.051Z,34.15
2022-10-23T02:22:46.847Z,34.28
2022-10-23T02:23:08.705Z,35.75
2022-10-23T02:23:27.003Z,37.55
2022-10-23T02:23:42.186Z,36.30
2022-10-23T02:23:59.823Z,36.58
2022-10-23T02:24:16.173Z,38.15
2022-10-23T02:24:34.286Z,35.83
2022-10-23T02:24:53.372Z,34.20
2022-10-23T02:25:11.728Z,33.95
2022-10-23T02:25:32.524Z,33.67
2022-10-23T02:25:51.751Z,36.00
2022-10-23T02:26:08.415Z,37.67
2022-10-23T02:26:28.819Z,37.95
2022-10-23T02:26:47.424Z,33.03
2022-10-23T02:27:04.051Z,32.45
2022-10-23T02:27:21.807Z,33.53
2022-10-23T02:27:37.339Z,34.97
2022-10-23T02:27:54.925Z,34.58
2022-10-23T02:28:10.605Z,36.88
2022-10-23T02:28:28.977Z,41.47
2022-10-23T02:28:47.480Z,41.70
2022-10-23T02:29:21.638Z,34.60
2022-10-23T02:29:38.949Z,32.80
2022-10-23T02:29:55.312Z,35.24
2022-10-23T02:30:12.001Z,35.58
2022-10-23T02:30:25.038Z,37.60
2022-10-23T02:30:40.111Z,39.75
2022-10-23T02:30:54.453Z,37.40
2022-10-23T02:31:10.714Z,38.90
2022-10-23T02:31:24.350Z,38.40
2022-10-23T02:31:38.144Z,35.33
2022-10-23T02:31:50.743Z,37.97
2022-10-23T02:32:03.591Z,37.67
2022-10-23T02:32:20.346Z,36.08
2022-10-23T02:32:34.301Z,36.92
2022-10-23T02:32:50.289Z,36.67
2022-10-23T02:33:04.493Z,37.67
2022-10-23T02:33:18.667Z,37.50
2022-10-23T02:33:33.081Z,35.58
2022-10-23T02:33:47.571Z,36.00
2022-10-23T02:34:00.658Z,36.28
2022-10-23T02:34:13.293Z,33.13
2022-10-23T02:34:26.003Z,31.75
2022-10-23T02:34:38.616Z,34.42
2022-10-23T02:34:52.648Z,34.67
2022-10-23T02:35:06.344Z,36.42
2022-10-23T02:35:21.183Z,37.70
2022-10-23T02:35:33.919Z,33.38
2022-10-23T02:35:48.366Z,33.00
2022-10-23T02:36:00.995Z,33.05
2022-10-23T02:36:14.217Z,31.55
2022-10-23T02:36:26.933Z,33.13
2022-10-23T02:36:40.541Z,34.45
2022-10-23T02:36:53.393Z,36.55
2022-10-23T02:37:05.977Z,36.05
2022-10-23T02:37:18.939Z,33.85
2022-10-23T02:37:31.643Z,35.70
2022-10-23T02:37:44.777Z,38.40
2022-10-23T02:37:59.449Z,35.90
2022-10-23T02:38:35.667Z,34.25
2022-10-23T02:38:48.350Z,35.38
2022-10-23T02:39:00.995Z,35.35
2022-10-23T02:39:13.663Z,35.60
2022-10-23T02:39:27.926Z,38.38
2022-10-23T02:39:41.167Z,38.72
2022-10-23T02:39:54.614Z,37.35
2022-10-23T02:40:11.189Z,35.28
2022-10-23T02:40:26.292Z,36.85
2022-10-23T02:40:42.015Z,37.88
2022-10-23T02:41:01.216Z,36.30
2022-10-23T02:41:25.239Z,38.53
2022-10-23T02:41:43.720Z,34.58
2022-10-23T02:42:03.003Z,37.13
2022-10-23T02:42:22.140Z,38.67
2022-10-23T02:42:39.079Z,40.92
2022-10-23T02:42:58.254Z,42.75
2022-10-23T02:43:21.226Z,38.75
2022-10-23T02:43:41.872Z,36.05
2022-10-23T02:44:04.800Z,37.95
2022-10-23T02:44:29.334Z,35.53
2022-10-23T02:44:52.875Z,36.45
2022-10-23T02:45:11.039Z,39.10
2022-10-23T02:45:32.441Z,38.05
2022-10-23T02:45:52.560Z,35.15
2022-10-23T02:46:12.844Z,35.25
2022-10-23T02:46:30.472Z,32.42
2022-10-23T02:46:52.165Z,33.47
2022-10-23T02:47:14.608Z,34.63
2022-10-23T02:47:40.232Z,38.88
2022-10-23T02:47:59.707Z,39.60
2022-10-23T02:48:19.690Z,34.83
2022-10-23T02:48:36.528Z,38.83
2022-10-23T02:48:55.774Z,38.58
2022-10-23T02:49:14.012Z,37.90
2022-10-23T02:49:35.480Z,41.10
2022-10-23T02:49:58.538Z,39.35
2022-10-23T02:50:21.492Z,36.17
2022-10-23T02:50:40.850Z,35.10
2022-10-23T02:51:00.984Z,37.22
2022-10-23T02:51:21.109Z,37.50
2022-10-23T02:51:47.851Z,32.90
2022-10-23T02:52:07.841Z,37.95
2022-10-23T02:52:26.507Z,38.83
2022-10-23T02:52:47.184Z,36.35
2022-10-23T02:53:06.075Z,39.90
2022-10-23T02:53:26.037Z,41.42
2022-10-23T02:53:50.518Z,40.42
2022-10-23T02:54:08.612Z,36.55
2022-10-23T02:54:32.529Z,37.33
2022-10-23T02:55:14.088Z,36.85
2022-10-23T02:55:39.324Z,41.75
2022-10-23T02:56:03.047Z,42.97
2022-10-23T02:56:23.261Z,40.83
2022-10-23T02:56:44.551Z,41.63
2022-10-23T02:57:03.743Z,41.78
2022-10-23T02:57:24.516Z,39.13
2022-10-23T02:57:43.376Z,43.33
2022-10-23T02:58:06.009Z,42.97
2022-10-23T02:58:24.443Z,43.88
2022-10-23T02:58:44.993Z,44.63
2022-10-23T02:59:05.304Z,40.22
2022-10-23T02:59:27.017Z,41.95
2022-10-23T02:59:45.511Z,39.97
2022-10-23T03:00:06.221Z,43.00
2022-10-23T03:00:21.736Z,44.00
2022-10-23T03:00:38.056Z,43.10
2022-10-23T03:00:55.954Z,43.75
2022-10-23T03:01:12.692Z,45.40
2022-10-23T03:01:29.773Z,46.25
2022-10-23T03:01:50.122Z,43.30
2022-10-23T03:02:07.302Z,40.72
2022-10-23T03:02:25.804Z,41.85
2022-10-23T03:02:42.525Z,41.38
2022-10-23T03:02:58.218Z,45.40
2022-10-23T03:03:14.995Z,47.30
2022-10-23T03:03:31.550Z,46.72
2022-10-23T03:03:50.789Z,49.85
2022-10-23T03:04:07.780Z,51.30
2022-10-23T03:04:23.935Z,47.65
2022-10-23T03:04:38.621Z,46.10
2022-10-23T03:04:53.951Z,46.70
2022-10-23T03:05:09.273Z,49.90
2022-10-23T03:05:27.108Z,48.50
2022-10-23T03:05:41.917Z,43.53
2022-10-23T03:05:54.721Z,40.03
2022-10-23T03:06:07.805Z,38.47
2022-10-23T03:06:22.005Z,40.92
2022-10-23T03:06:34.773Z,42.95
2022-10-23T03:06:50.313Z,45.05
2022-10-23T03:07:03.331Z,46.92
2022-10-23T03:07:19.095Z,45.60
2022-10-23T03:07:32.270Z,43.78
2022-10-23T03:07:46.226Z,45.00
2022-10-23T03:08:00.008Z,44.70
2022-10-23T03:08:14.407Z,40.58
2022-10-23T03:08:27.043Z,36.03
2022-10-23T03:08:44.311Z,39.85
2022-10-23T03:09:00.244Z,45.97
2022-10-23T03:09:13.968Z,47.55
2022-10-23T03:09:27.159Z,46.03
2022-10-23T03:09:39.918Z,44.03
2022-10-23T03:09:52.623Z,44.40
2022-10-23T03:10:06.459Z,46.10
2022-10-23T03:10:19.079Z,48.35
2022-10-23T03:10:32.220Z,47.92
2022-10-23T03:10:44.993Z,46.88
2022-10-23T03:10:58.715Z,48.85
2022-10-23T03:11:11.515Z,47.25
2022-10-23T03:11:24.204Z,49.28
2022-10-23T03:11:36.998Z,50.35
2022-10-23T03:11:49.776Z,46.97
2022-10-23T03:12:02.372Z,44.72
2022-10-23T03:12:14.994Z,45.03
2022-10-23T03:12:27.764Z,45.78
2022-10-23T03:12:41.728Z,45.97
2022-10-23T03:12:54.547Z,45.20
2022-10-23T03:13:09.982Z,43.40
2022-10-23T03:13:23.388Z,43.83
2022-10-23T03:13:36.960Z,42.08
2022-10-23T03:13:49.648Z,42.85
2022-10-23T03:14:02.564Z,48.47
2022-10-23T03:14:15.271Z,46.55
2022-10-23T03:14:27.873Z,45.85
2022-10-23T03:14:41.475Z,43.05
2022-10-23T03:14:54.107Z,48.85
2022-10-23T03:15:08.053Z,49.63
2022-10-23T03:15:20.692Z,45.55
2022-10-23T03:15:33.311Z,47.70
2022-10-23T03:15:45.906Z,48.00
2022-10-23T03:15:59.487Z,49.35
2022-10-23T03:16:12.111Z,49.47
2022-10-23T03:16:25.154Z,46.78
2022-10-23T03:16:37.954Z,45.28
2022-10-23T03:16:50.541Z,45.97
2022-10-23T03:17:03.151Z,48.35
2022-10-23T03:17:16.768Z,45.60
2022-10-23T03:17:29.431Z,46.92
2022-10-23T03:17:42.116Z,50.97
2022-10-23T03:17:54.749Z,49.42
2022-10-23T03:18:07.351Z,44.55
2022-10-23T03:18:19.931Z,42.08
2022-10-23T03:18:33.491Z,41.58
2022-10-23T03:18:46.059Z,43.90
2022-10-23T03:18:58.705Z,45.33
2022-10-23T03:19:29.559Z,45.40
2022-10-23T03:19:42.147Z,46.33
2022-10-23T03:19:54.790Z,43.88
2022-10-23T03:20:09.645Z,44.30
2022-10-23T03:20:22.830Z,44.67
2022-10-23T03:20:35.469Z,43.65
2022-10-23T03:20:48.051Z,52.55
2022-10-23T03:21:01.010Z,53.15
2022-10-23T03:21:13.760Z,48.38
2022-10-23T03:21:26.604Z,46.35
2022-10-23T03:21:41.247Z,43.80
2022-10-23T03:21:53.980Z,42.05
2022-10-23T03:22:06.563Z,44.40
2022-10-23T03:22:19.181Z,44.05
2022-10-23T03:22:31.808Z,47.45
2022-10-23T03:22:44.922Z,46.20
2022-10-23T03:22:57.865Z,48.00
2022-10-23T03:23:13.910Z,47.95
2022-10-23T03:23:26.585Z,51.83
2022-10-23T03:23:39.219Z,54.67
2022-10-23T03:23:51.851Z,49.97
2022-10-23T03:24:04.734Z,46.00
2022-10-23T03:24:17.335Z,48.88
2022-10-23T03:24:30.018Z,50.50
2022-10-23T03:24:43.776Z,49.47
2022-10-23T03:24:56.423Z,51.60
2022-10-23T03:25:09.548Z,49.67
2022-10-23T03:25:22.186Z,46.80
2022-10-23T03:25:34.755Z,43.85
2022-10-23T03:25:47.339Z,44.30
2022-10-23T03:25:59.987Z,45.08
2022-10-23T03:26:13.939Z,47.30
2022-10-23T03:26:26.525Z,45.88
2022-10-23T03:26:39.147Z,45.50
2022-10-23T03:26:51.736Z,46.58